createdAt,value
2018-07-06T00:01:03.380Z,18.98
2018-07-06T00:06:03.858Z,18.08
2018-07-06T00:11:03.779Z,17.98
2018-07-06T00:16:03.732Z,17.98
2018-07-06T00:21:03.241Z,17.98
2018-07-06T00:26:03.452Z,18.78
2018-07-06T00:31:03.751Z,18.78
2018-07-06T00:36:03.235Z,18.18
2018-07-06T00:41:03.824Z,17.78
2018-07-06T00:46:03.095Z,17.78
2018-07-06T00:51:03.595Z,18.18
2018-07-06T00:56:03.836Z,17.58
2018-07-06T01:01:03.130Z,17.18
2018-07-06T01:06:03.628Z,17.18
2018-07-06T01:11:03.138Z,16.78
2018-07-06T01:16:03.451Z,17.38
2018-07-06T01:21:03.971Z,17.78
2018-07-06T01:26:03.133Z,17.78
2018-07-06T01:31:03.471Z,17.78
2018-07-06T01:36:03.923Z,17.48
2018-07-06T01:41:03.512Z,17.48
2018-07-06T01:46:03.761Z,17.48
2018-07-06T01:51:03.263Z,17.48
2018-07-06T01:56:03.460Z,17.48
2018-07-06T02:01:03.714Z,17.58
2018-07-06T02:06:03.222Z,17.28
2018-07-06T02:11:03.803Z,17.08
2018-07-06T02:16:03.107Z,16.98
2018-07-06T02:21:03.613Z,16.98
2018-07-06T02:26:03.826Z,16.98
2018-07-06T02:31:03.130Z,16.98
2018-07-06T02:36:03.606Z,16.98
2018-07-06T02:41:03.212Z,16.98
2018-07-06T02:46:03.502Z,16.98
2018-07-06T02:51:03.989Z,16.98
2018-07-06T02:56:03.218Z,16.98
2018-07-06T03:01:03.517Z,16.98
2018-07-06T03:06:03.949Z,16.98
2018-07-06T03:11:03.567Z,16.98
2018-07-06T03:16:03.844Z,16.98
2018-07-06T03:21:03.356Z,16.98
2018-07-06T03:26:03.546Z,16.98
2018-07-06T03:31:03.825Z,16.98
2018-07-06T03:36:03.325Z,16.98
2018-07-06T03:41:03.908Z,16.98
2018-07-06T03:46:03.197Z,16.98
2018-07-06T03:51:03.669Z,16.98
2018-07-06T03:56:03.885Z,16.98
2018-07-06T04:01:03.390Z,16.98
2018-07-06T04:06:03.628Z,16.98
2018-07-06T04:11:03.237Z,16.98
2018-07-06T04:16:03.779Z,16.98
2018-07-06T04:21:03.084Z,16.98
2018-07-06T04:26:03.781Z,16.98
2018-07-06T04:31:03.069Z,16.98
2018-07-06T04:36:03.499Z,16.98
2018-07-06T04:41:03.095Z,16.98
2018-07-06T04:46:03.376Z,16.98
2018-07-06T04:51:03.920Z,16.98
2018-07-06T04:56:03.088Z,16.98
2018-07-06T05:01:03.325Z,16.98
2018-07-06T05:06:03.885Z,16.98
2018-07-06T05:11:03.368Z,16.98
2018-07-06T05:16:03.675Z,16.98
2018-07-06T05:21:03.159Z,16.98
2018-07-06T05:26:03.358Z,16.98
2018-07-06T05:31:03.647Z,16.98
2018-07-06T05:36:03.130Z,16.98
2018-07-06T05:41:03.729Z,16.98
2018-07-06T05:46:02.999Z,16.98
2018-07-06T05:51:03.510Z,16.98
2018-07-06T05:56:03.722Z,16.98
2018-07-06T06:01:02.998Z,16.98
2018-07-06T06:06:03.464Z,16.98
2018-07-06T06:11:03.043Z,16.98
2018-07-06T06:16:03.420Z,16.98
2018-07-06T06:21:03.842Z,16.98
2018-07-06T06:26:03.082Z,16.98
2018-07-06T06:31:03.359Z,16.98
2018-07-06T06:36:03.873Z,16.98
2018-07-06T06:41:03.419Z,16.98
2018-07-06T06:46:03.689Z,16.98
2018-07-06T06:51:03.225Z,16.98
2018-07-06T06:56:03.393Z,16.98
2018-07-06T07:01:03.920Z,16.98
2018-07-06T07:06:03.134Z,16.98
2018-07-06T07:11:03.719Z,16.98
2018-07-06T07:16:02.996Z,16.98
2018-07-06T07:21:03.526Z,16.98
2018-07-06T07:26:03.676Z,16.98
2018-07-06T07:31:02.973Z,16.98
2018-07-06T07:36:03.464Z,16.98
2018-07-06T07:41:03.012Z,16.98
2018-07-06T07:46:03.311Z,16.98
2018-07-06T07:51:03.795Z,16.98
2018-07-06T07:56:03.013Z,16.98
2018-07-06T08:01:04.289Z,16.98
2018-07-06T08:06:03.741Z,16.98
2018-07-06T08:11:03.362Z,16.98
2018-07-06T08:16:03.620Z,16.98
2018-07-06T08:21:03.159Z,16.98
2018-07-06T08:26:03.379Z,16.98
2018-07-06T08:31:03.645Z,17.18
2018-07-06T08:36:03.135Z,19.48
2018-07-06T08:41:03.685Z,19.58
2018-07-06T08:46:02.962Z,19.58
2018-07-06T08:51:03.405Z,19.69
2018-07-06T08:56:03.643Z,19.67
2018-07-06T09:01:03.916Z,19.90
2018-07-06T09:06:03.394Z,20.02
2018-07-06T09:11:02.990Z,20.17
2018-07-06T09:16:03.529Z,20.42
2018-07-06T09:21:04.082Z,20.39
2018-07-06T09:26:04.800Z,20.44
2018-07-06T09:31:03.496Z,20.44
2018-07-06T09:36:04.053Z,20.44
2018-07-06T09:41:03.493Z,20.68
2018-07-06T09:46:03.786Z,20.68
2018-07-06T09:51:03.706Z,20.68
2018-07-06T09:56:03.356Z,20.68
2018-07-06T10:01:03.670Z,21.83
2018-07-06T10:06:03.119Z,21.83
2018-07-06T10:11:04.109Z,21.83
2018-07-06T10:16:03.015Z,21.83
2018-07-06T10:21:03.507Z,22.34
2018-07-06T10:26:03.747Z,22.34
2018-07-06T10:31:03.006Z,22.67
2018-07-06T10:36:03.462Z,22.67
2018-07-06T10:41:03.063Z,22.92
2018-07-06T10:46:03.364Z,22.97
2018-07-06T10:51:03.864Z,22.97
2018-07-06T10:56:03.019Z,22.97
2018-07-06T11:01:03.330Z,23.83
2018-07-06T11:06:03.868Z,23.94
2018-07-06T11:11:03.416Z,23.94
2018-07-06T11:16:03.697Z,24.29
2018-07-06T11:21:03.205Z,24.57
2018-07-06T11:26:03.435Z,24.62
2018-07-06T11:31:03.711Z,23.84
2018-07-06T11:36:03.148Z,23.84
2018-07-06T11:41:03.776Z,23.84
2018-07-06T11:46:03.098Z,23.84
2018-07-06T11:51:03.510Z,23.84
2018-07-06T11:56:03.929Z,23.84
2018-07-06T12:01:02.995Z,23.84
2018-07-06T12:06:03.507Z,23.84
2018-07-06T12:11:03.088Z,23.84
2018-07-06T12:16:03.387Z,23.84
2018-07-06T12:21:04.206Z,23.84
2018-07-06T12:26:03.136Z,23.84
2018-07-06T12:31:03.429Z,23.84
2018-07-06T12:36:03.884Z,23.84
2018-07-06T12:41:03.442Z,23.84
2018-07-06T12:46:03.718Z,23.84
2018-07-06T12:51:03.286Z,23.84
2018-07-06T12:56:03.379Z,23.84
2018-07-06T13:01:03.703Z,23.84
2018-07-06T13:06:03.209Z,23.84
2018-07-06T13:11:03.772Z,23.84
2018-07-06T13:16:03.076Z,23.84
2018-07-06T13:21:04.048Z,23.84
2018-07-06T13:26:03.797Z,23.84
2018-07-06T13:31:03.084Z,23.84
2018-07-06T13:36:03.569Z,23.84
2018-07-06T13:41:03.161Z,23.84
2018-07-06T13:46:03.463Z,23.84
2018-07-06T13:51:03.919Z,23.84
2018-07-06T13:56:03.108Z,23.84
2018-07-06T14:01:03.393Z,23.84
2018-07-06T14:06:03.891Z,23.84
2018-07-06T14:11:03.475Z,23.84
2018-07-06T14:16:03.769Z,22.99
2018-07-06T14:21:03.278Z,22.64
2018-07-06T14:26:03.483Z,22.89
2018-07-06T14:31:03.760Z,22.52
2018-07-06T14:36:03.300Z,22.75
2018-07-06T14:41:03.936Z,22.88
2018-07-06T14:46:03.133Z,23.27
2018-07-06T14:51:03.599Z,23.01
2018-07-06T14:56:03.800Z,23.22
2018-07-06T15:01:03.098Z,22.73
2018-07-06T15:06:03.545Z,22.80
2018-07-06T15:11:03.151Z,23.04
2018-07-06T15:16:03.607Z,22.67
2018-07-06T15:21:03.920Z,22.89
2018-07-06T15:26:03.139Z,22.79
2018-07-06T15:31:03.453Z,22.27
2018-07-06T15:36:03.930Z,21.95
2018-07-06T15:41:03.862Z,21.91
2018-07-06T15:46:03.791Z,22.20
2018-07-06T15:51:03.248Z,22.14
2018-07-06T15:56:03.462Z,22.09
2018-07-06T16:01:03.753Z,21.88
2018-07-06T16:06:03.234Z,21.86
2018-07-06T16:11:03.788Z,21.64
2018-07-06T16:16:03.101Z,21.88
2018-07-06T16:21:03.650Z,21.96
2018-07-06T16:26:03.876Z,21.72
2018-07-06T16:31:03.135Z,21.83
2018-07-06T16:36:03.640Z,21.87
2018-07-06T16:41:03.176Z,21.95
2018-07-06T16:46:03.458Z,21.71
2018-07-06T16:51:03.938Z,21.74
2018-07-06T16:56:03.179Z,21.45
2018-07-06T17:01:03.609Z,21.54
2018-07-06T17:06:03.984Z,21.49
2018-07-06T17:11:03.524Z,21.65
2018-07-06T17:16:03.842Z,21.92
2018-07-06T17:21:03.620Z,21.73
2018-07-06T17:26:03.578Z,21.46
2018-07-06T17:31:03.838Z,21.49
2018-07-06T17:36:03.369Z,21.42
2018-07-06T17:41:03.908Z,21.52
2018-07-06T17:46:03.210Z,20.99
2018-07-06T17:51:03.684Z,20.90
2018-07-06T17:56:03.880Z,20.98
2018-07-06T18:01:03.163Z,20.76
2018-07-06T18:06:03.649Z,20.83
2018-07-06T18:11:03.227Z,20.64
2018-07-06T18:16:03.662Z,20.75
2018-07-06T18:21:04.033Z,20.34
2018-07-06T18:26:03.262Z,20.45
2018-07-06T18:31:03.524Z,20.15
2018-07-06T18:36:04.041Z,20.18
2018-07-06T18:41:03.615Z,20.34
2018-07-06T18:46:03.912Z,20.18
2018-07-06T18:51:03.347Z,20.15
2018-07-06T18:56:03.610Z,19.93
2018-07-06T19:01:03.844Z,20.07
2018-07-06T19:06:03.321Z,19.96
2018-07-06T19:11:03.867Z,19.96
2018-07-06T19:16:03.200Z,19.97
2018-07-06T19:21:03.700Z,19.76
2018-07-06T19:26:02.969Z,20.00
2018-07-06T19:31:03.593Z,19.98
2018-07-06T19:36:03.699Z,20.04
2018-07-06T19:41:03.305Z,20.18
2018-07-06T19:46:03.593Z,20.08
2018-07-06T19:51:03.046Z,20.36
2018-07-06T19:56:03.305Z,20.49
2018-07-06T20:01:03.588Z,20.55
2018-07-06T20:06:03.057Z,20.68
2018-07-06T20:11:03.661Z,20.58
2018-07-06T20:16:02.971Z,20.69
2018-07-06T20:21:03.582Z,20.58
2018-07-06T20:26:03.644Z,20.54
2018-07-06T20:31:03.907Z,20.03
2018-07-06T20:36:03.406Z,19.90
2018-07-06T20:41:03.003Z,19.68
2018-07-06T20:46:03.246Z,19.64
2018-07-06T20:51:04.025Z,19.82
2018-07-06T20:56:02.996Z,19.79
2018-07-06T21:01:03.245Z,19.57
2018-07-06T21:06:03.703Z,19.49
2018-07-06T21:11:03.285Z,19.26
2018-07-06T21:16:03.677Z,19.27
2018-07-06T21:21:03.088Z,19.66
2018-07-06T21:26:03.307Z,19.73
2018-07-06T21:31:03.606Z,19.75
2018-07-06T21:36:03.083Z,19.49
2018-07-06T21:41:03.662Z,19.32
2018-07-06T21:46:02.973Z,19.33
2018-07-06T21:51:03.436Z,19.24
2018-07-06T21:56:03.638Z,19.13
2018-07-06T22:01:03.938Z,18.84
2018-07-06T22:06:03.405Z,19.01
2018-07-06T22:11:02.977Z,19.01
2018-07-06T22:16:03.248Z,18.88
2018-07-06T22:21:03.778Z,18.86
2018-07-06T22:26:02.988Z,18.96
2018-07-06T22:31:03.322Z,19.11
2018-07-06T22:36:03.735Z,18.72
2018-07-06T22:41:03.375Z,19.09
2018-07-06T22:46:03.639Z,18.18
2018-07-06T22:51:03.078Z,18.18
2018-07-06T22:56:03.289Z,17.78
2018-07-06T23:01:03.593Z,17.88
2018-07-06T23:06:03.072Z,18.38
2018-07-06T23:11:03.659Z,18.57
2018-07-06T23:16:03.929Z,18.69
2018-07-06T23:21:03.434Z,18.71
2018-07-06T23:26:03.659Z,18.83
2018-07-06T23:31:03.948Z,18.49
2018-07-06T23:36:03.390Z,18.15
2018-07-06T23:41:02.987Z,17.88
2018-07-06T23:46:03.285Z,17.79
2018-07-06T23:51:03.697Z,17.61
2018-07-06T23:56:03.928Z,17.53
